Startpagina
METAR-TAF:

METAR-TAF

Vliegvelden :

Weno, Micronesië

breedte: 07-28N, lengte: 151-51E, hoogte: 3 m

Actueel weer

Dit bericht is 46 minuten geleden gemaakt, om 12:50 UTC
Wind 10 kt uit het noordoosten
Temperatuur 26°C
Vochtigheid 94%
Druk 1008 hPa
Zicht: 24.1 km
Weinig wolken op 1400 ft
Weinig wolken op 12000 ft
Gebroken wolken op 28000 ft

METAR: PTKK 191250Z 04010KT 15SM FEW014 FEW120 BKN280 26/25 A2977 RMK SLP084 T02610246

Tijdstip: 23:36 (13:36 UTC)

Verwachting

Dit bericht is 2 uur en het 4 minuten geleden gemaakt, om 11:32 UTC
Verwachting geldig van 19 om 12 UTC tot 20 om 12 UTC
Wind 10 kt uit het noordoosten
Zicht: 10 km
Verspreide wolken op 1400 ft
Verspreide wolken op 12000 ft
Gebroken wolken op 28000 ft
buien in de omgeving

TAF: PTKK 191132Z 1912/2012 04010KT P6SM VCSH SCT014 SCT120 BKN280

Waarnemingen en weersverwachtingen van meer dan 4000 vliegvelden (METAR en TAF).

De beschikbare stations zijn de gele en rode punten op de kaart.

Ga met uw muis naar het station om de naam te zien.

Klik dan om waarnemingen en weersverwachtingen te zien.

kaart wijzigen: klik op de groene knoppen met een zwart kruis om in te zoomen, op de groene knop met een streepje om uit te zoomen of op de groene pijlen voor aangrenzende kaarten.


METAR-TAF: